createdAt,value
2024-05-09T05:17:10.562Z,12.70
2024-05-09T05:19:37.203Z,10.27
2024-05-09T05:22:03.836Z,11.10
2024-05-09T05:24:30.297Z,10.95
2024-05-09T05:26:56.812Z,10.60
2024-05-09T05:29:23.361Z,9.93
2024-05-09T05:31:49.968Z,10.52
2024-05-09T05:34:16.535Z,10.43
2024-05-09T05:36:43.027Z,10.32
2024-05-09T05:39:09.504Z,13.18
2024-05-09T05:41:36.079Z,9.33
2024-05-09T05:44:02.606Z,9.68
2024-05-09T05:46:29.146Z,10.82
2024-05-09T05:48:55.754Z,10.32
2024-05-09T05:51:22.346Z,9.98
2024-05-09T05:53:48.923Z,12.47
2024-05-09T05:56:15.503Z,11.30
2024-05-09T05:58:42.014Z,10.00
2024-05-09T06:01:08.508Z,10.50
2024-05-09T06:03:35.137Z,9.88
2024-05-09T06:06:02.657Z,9.73
2024-05-09T06:08:30.443Z,11.13
2024-05-09T06:10:57.224Z,10.35
2024-05-09T06:13:23.802Z,9.57
2024-05-09T06:15:50.284Z,8.93
2024-05-09T06:18:17.063Z,9.13
2024-05-09T06:20:44.386Z,11.15
2024-05-09T06:23:12.852Z,9.77
2024-05-09T06:25:40.023Z,10.95
2024-05-09T06:28:06.829Z,9.13
2024-05-09T06:33:03.973Z,8.93
2024-05-09T06:35:30.938Z,11.25
2024-05-09T06:37:57.625Z,10.32
2024-05-09T06:40:29.292Z,10.75
2024-05-09T06:43:00.838Z,11.23
2024-05-09T06:45:27.325Z,10.73
2024-05-09T06:47:53.977Z,10.48
2024-05-09T06:50:24.196Z,11.50
2024-05-09T06:52:54.434Z,10.13
2024-05-09T06:55:20.961Z,10.40
2024-05-09T06:57:47.432Z,10.57
2024-05-09T07:00:22.700Z,11.07
2024-05-09T07:02:57.101Z,9.30
2024-05-09T07:05:24.241Z,9.45
2024-05-09T07:07:50.864Z,10.00
2024-05-09T07:10:22.179Z,11.68
2024-05-09T07:12:55.345Z,9.40
2024-05-09T07:15:21.830Z,9.27
2024-05-09T07:17:48.551Z,9.45
2024-05-09T07:20:23.137Z,10.37
2024-05-09T07:22:54.451Z,9.02
2024-05-09T07:25:20.951Z,7.65
2024-05-09T07:27:47.439Z,9.15
2024-05-09T07:30:20.346Z,9.38
2024-05-09T07:32:53.649Z,9.77
2024-05-09T07:35:20.365Z,9.80
2024-05-09T07:37:46.995Z,8.60
2024-05-09T07:40:21.298Z,8.43
2024-05-09T07:42:54.233Z,8.98
2024-05-09T07:45:39.878Z,8.63
2024-05-09T07:52:32.492Z,11.90
2024-05-09T07:53:39.590Z,8.40
2024-05-09T07:56:11.410Z,9.90
2024-05-09T07:58:38.776Z,8.60
2024-05-09T08:01:05.870Z,14.30
2024-05-09T08:03:32.724Z,9.15
2024-05-09T08:05:59.362Z,8.35
2024-05-09T08:08:26.565Z,9.38
2024-05-09T08:10:53.112Z,11.43
2024-05-09T08:13:19.766Z,11.05
2024-05-09T08:15:46.284Z,8.05
2024-05-09T08:18:12.949Z,8.90
2024-05-09T08:20:40.436Z,8.35
2024-05-09T08:23:07.349Z,9.03
2024-05-09T08:25:33.894Z,8.18
2024-05-09T08:28:03.117Z,9.10
2024-05-09T08:30:35.837Z,9.05
2024-05-09T08:33:05.000Z,7.65
2024-05-09T08:35:32.388Z,7.57
2024-05-09T08:37:59.045Z,8.68
2024-05-09T08:40:33.295Z,7.35
2024-05-09T08:43:02.688Z,9.73
2024-05-09T08:45:29.566Z,8.65
2024-05-09T08:47:56.497Z,10.03
2024-05-09T08:50:32.046Z,8.85
2024-05-09T08:53:04.764Z,7.30
2024-05-09T08:55:31.306Z,7.15
2024-05-09T08:57:58.286Z,8.73
2024-05-09T09:00:33.852Z,8.43
2024-05-09T09:03:05.878Z,7.78
2024-05-09T09:05:33.800Z,7.82
2024-05-09T09:08:00.644Z,7.70
2024-05-09T09:10:31.823Z,6.07
2024-05-09T09:13:01.675Z,5.87
2024-05-09T09:15:28.267Z,7.00
2024-05-09T09:17:58.352Z,7.35
2024-05-09T09:20:34.031Z,6.53
2024-05-09T09:23:03.214Z,6.18
2024-05-09T09:25:29.694Z,6.23
2024-05-09T09:27:58.026Z,6.90
2024-05-09T09:30:34.637Z,6.70
2024-05-09T09:33:04.320Z,6.13
2024-05-09T09:35:32.087Z,6.15
2024-05-09T09:38:02.036Z,7.67
2024-05-09T09:40:35.932Z,8.15
2024-05-09T09:43:05.841Z,6.80
2024-05-09T09:45:32.811Z,6.72
2024-05-09T09:47:59.549Z,6.32
2024-05-09T09:50:33.383Z,9.07
2024-05-09T09:53:01.181Z,6.82
2024-05-09T09:55:27.898Z,6.57
2024-05-09T09:57:55.989Z,8.32
2024-05-09T10:00:32.385Z,8.45
2024-05-09T10:03:00.452Z,7.70
2024-05-09T10:05:27.653Z,6.22
2024-05-09T10:07:54.775Z,6.57
2024-05-09T10:13:04.816Z,7.60
2024-05-09T10:15:53.956Z,8.27
2024-05-09T10:18:20.939Z,7.95
2024-05-09T10:20:47.578Z,8.82
2024-05-09T10:23:28.024Z,6.78
2024-05-09T10:26:02.147Z,5.88
2024-05-09T10:28:29.543Z,7.10
2024-05-09T10:31:12.767Z,6.10
2024-05-09T10:33:40.786Z,6.97
2024-05-09T10:36:11.457Z,7.78
2024-05-09T10:38:38.100Z,7.15
2024-05-09T10:41:04.840Z,6.03
2024-05-09T10:43:31.447Z,5.90
2024-05-09T10:45:57.994Z,7.88
2024-05-09T10:48:24.790Z,6.00
2024-05-09T10:50:52.458Z,6.30
2024-05-09T10:53:18.939Z,8.03
2024-05-09T10:55:56.118Z,6.63
2024-05-09T10:58:23.274Z,6.85
2024-05-09T11:00:50.346Z,7.10
2024-05-09T11:03:20.403Z,5.97
2024-05-09T11:05:46.986Z,6.03
2024-05-09T11:08:13.627Z,5.95
2024-05-09T11:10:40.403Z,5.90
2024-05-09T11:13:07.057Z,5.55
2024-05-09T11:15:42.535Z,5.97
2024-05-09T11:18:25.342Z,7.00
2024-05-09T11:20:53.882Z,6.68
2024-05-09T11:23:21.831Z,7.72
2024-05-09T11:25:49.605Z,5.72
2024-05-09T11:28:17.843Z,8.60
2024-05-09T11:30:44.618Z,8.47
2024-05-09T11:33:12.096Z,5.95
2024-05-09T11:35:38.663Z,5.88
2024-05-09T11:38:05.292Z,6.45
2024-05-09T11:40:34.433Z,7.88
2024-05-09T11:43:01.456Z,7.97
2024-05-09T11:45:28.219Z,7.00
2024-05-09T11:47:54.919Z,6.85
2024-05-09T11:50:27.291Z,6.30
2024-05-09T11:52:58.957Z,6.35
2024-05-09T11:55:28.020Z,6.47
2024-05-09T11:57:55.491Z,7.75
2024-05-09T12:00:29.633Z,7.47
2024-05-09T12:03:03.007Z,5.40
2024-05-09T12:05:29.757Z,6.90
2024-05-09T12:07:56.338Z,6.80
2024-05-09T12:10:31.992Z,8.15
2024-05-09T12:13:00.878Z,6.40
2024-05-09T12:15:27.392Z,6.45
2024-05-09T12:17:54.951Z,7.07
2024-05-09T12:20:28.776Z,6.80
2024-05-09T12:23:02.207Z,8.55
2024-05-09T12:25:28.680Z,6.88
2024-05-09T12:27:55.276Z,5.85
2024-05-09T12:30:32.540Z,6.63
2024-05-09T12:33:04.201Z,6.83
2024-05-09T12:35:30.960Z,6.05
2024-05-09T12:37:57.443Z,6.15
2024-05-09T12:40:34.040Z,5.32
2024-05-09T12:43:03.824Z,5.68
2024-05-09T12:45:30.450Z,5.63
2024-05-09T12:47:57.139Z,6.38
2024-05-09T12:50:31.024Z,6.45
2024-05-09T12:52:59.540Z,6.20
2024-05-09T12:55:26.918Z,6.72
2024-05-09T12:57:53.658Z,6.97
2024-05-09T13:00:27.404Z,6.70
2024-05-09T13:02:58.205Z,6.10
2024-05-09T13:05:25.014Z,6.10
2024-05-09T13:07:51.688Z,6.95
2024-05-09T13:10:28.628Z,6.83
2024-05-09T13:12:59.177Z,7.38
2024-05-09T13:15:25.717Z,7.32
2024-05-09T13:17:52.285Z,8.40
2024-05-09T13:20:26.267Z,8.25
2024-05-09T13:23:01.340Z,6.03
2024-05-09T13:25:27.844Z,6.18
2024-05-09T13:27:54.388Z,6.68
2024-05-09T13:30:29.493Z,9.50
2024-05-09T13:33:05.199Z,5.90
2024-05-09T13:35:31.849Z,7.43
2024-05-09T13:37:58.346Z,5.63
2024-05-09T13:40:32.198Z,5.15
2024-05-09T13:43:01.389Z,8.70
2024-05-09T13:45:27.919Z,7.97
2024-05-09T13:47:54.529Z,8.50
2024-05-09T13:50:30.546Z,7.30
2024-05-09T13:53:00.711Z,6.25
2024-05-09T13:55:27.230Z,6.03
2024-05-09T13:57:53.863Z,6.28
2024-05-09T14:00:37.206Z,7.30
2024-05-09T14:03:06.971Z,7.93
2024-05-09T14:05:33.733Z,6.40
2024-05-09T14:08:00.514Z,7.43
2024-05-09T14:12:55.109Z,5.83
2024-05-09T14:15:21.667Z,6.88
2024-05-09T14:17:48.158Z,7.20
2024-05-09T14:20:22.941Z,6.03
2024-05-09T14:22:55.150Z,7.88
2024-05-09T14:25:21.927Z,5.90
2024-05-09T14:27:48.512Z,5.57
2024-05-09T14:30:22.839Z,7.90
2024-05-09T14:32:57.199Z,6.28
2024-05-09T14:35:23.744Z,6.97
2024-05-09T14:37:50.218Z,8.23
2024-05-09T14:40:30.536Z,6.00
2024-05-09T14:43:03.469Z,5.50
2024-05-09T14:45:30.252Z,6.00
2024-05-09T14:47:57.042Z,6.68
2024-05-09T14:50:34.469Z,6.93
2024-05-09T14:53:04.191Z,7.88
2024-05-09T14:55:30.907Z,5.68
2024-05-09T14:57:57.560Z,5.65
2024-05-09T15:00:28.943Z,7.32
2024-05-09T15:02:59.955Z,6.93
2024-05-09T15:05:26.554Z,6.85
2024-05-09T15:07:53.296Z,6.25
2024-05-09T15:10:27.025Z,5.90
2024-05-09T15:13:00.543Z,6.57
2024-05-09T15:15:27.197Z,6.13
2024-05-09T15:17:54.759Z,6.03
2024-05-09T15:20:30.355Z,5.50
2024-05-09T15:23:01.034Z,7.32
2024-05-09T15:25:27.655Z,6.93
2024-05-09T15:27:54.545Z,5.60
2024-05-09T15:30:28.296Z,4.95
2024-05-09T15:32:58.006Z,4.90
2024-05-09T15:35:24.492Z,6.32
2024-05-09T15:37:51.014Z,8.10
2024-05-09T15:40:26.278Z,5.90
2024-05-09T15:43:01.998Z,5.63
2024-05-09T15:45:28.579Z,5.47
2024-05-09T15:47:56.212Z,6.53
2024-05-09T15:50:32.326Z,5.18
2024-05-09T15:53:04.268Z,5.93
2024-05-09T15:55:30.757Z,6.45
2024-05-09T15:57:57.406Z,7.20
2024-05-09T16:00:29.342Z,6.03
2024-05-09T16:03:03.512Z,5.78
2024-05-09T16:05:30.215Z,7.80
2024-05-09T16:07:56.876Z,6.45
2024-05-09T16:10:26.267Z,9.57
2024-05-09T16:12:58.837Z,5.72
2024-05-09T16:15:25.376Z,6.20
2024-05-09T16:17:51.960Z,6.73
2024-05-09T16:20:29.412Z,7.50
2024-05-09T16:23:04.406Z,6.47
2024-05-09T16:25:30.903Z,5.82
2024-05-09T16:27:57.492Z,7.00
2024-05-09T16:30:31.542Z,8.63
2024-05-09T16:33:01.803Z,6.80
2024-05-09T16:35:28.438Z,6.72
2024-05-09T16:37:54.934Z,6.40
2024-05-09T16:40:30.105Z,7.15
2024-05-09T16:43:04.294Z,7.13
2024-05-09T16:45:31.148Z,6.50
2024-05-09T16:48:00.306Z,6.53
2024-05-09T16:50:32.385Z,6.97
2024-05-09T16:53:01.026Z,9.68
2024-05-09T16:55:27.697Z,10.03
2024-05-09T16:57:54.576Z,6.65
2024-05-09T17:00:31.242Z,6.75
2024-05-09T17:03:06.313Z,6.72
2024-05-09T17:05:33.597Z,7.43
2024-05-09T17:08:00.437Z,6.93
2024-05-09T17:10:32.349Z,7.40
2024-05-09T17:13:01.055Z,6.47
2024-05-09T17:15:27.593Z,6.28
2024-05-09T17:17:54.177Z,8.32
2024-05-09T17:20:29.387Z,7.87
2024-05-09T17:23:00.311Z,7.20
2024-05-09T17:25:26.901Z,6.25
2024-05-09T17:27:53.628Z,7.55
2024-05-09T17:30:28.656Z,7.43
2024-05-09T17:33:00.927Z,7.30
2024-05-09T17:35:27.581Z,8.60
2024-05-09T17:37:54.135Z,7.05
2024-05-09T17:40:30.054Z,7.80
2024-05-09T17:42:59.954Z,6.90
2024-05-09T17:45:26.525Z,6.67
2024-05-09T17:47:53.381Z,7.93
2024-05-09T17:50:27.354Z,6.07
2024-05-09T17:53:00.259Z,7.10
2024-05-09T17:55:26.834Z,7.78
2024-05-09T17:57:53.550Z,9.17
2024-05-09T18:00:28.972Z,6.95
2024-05-09T18:03:04.638Z,7.35
2024-05-09T18:05:31.678Z,8.55
2024-05-09T18:07:58.552Z,7.82
2024-05-09T18:10:32.829Z,7.40
2024-05-09T18:13:04.381Z,7.45
2024-05-09T18:15:30.991Z,8.40
2024-05-09T18:17:57.749Z,7.68
2024-05-09T18:20:33.108Z,9.02
2024-05-09T18:23:07.732Z,10.63
2024-05-09T18:25:35.310Z,9.90
2024-05-09T18:28:02.978Z,8.30
2024-05-09T18:30:34.737Z,8.40
2024-05-09T18:33:04.117Z,10.60
2024-05-09T18:35:32.159Z,12.23
2024-05-09T18:37:58.706Z,32.05
2024-05-09T18:40:32.530Z,35.35
2024-05-09T18:43:02.781Z,19.48
2024-05-09T18:45:29.525Z,18.70
2024-05-09T18:47:56.532Z,27.53
2024-05-09T18:50:31.954Z,22.73
2024-05-09T18:53:02.735Z,14.00
2024-05-09T18:55:29.364Z,16.27
2024-05-09T18:57:55.985Z,13.35
2024-05-09T19:00:33.040Z,12.57
2024-05-09T19:03:03.312Z,11.73
2024-05-09T19:05:30.395Z,15.05
2024-05-09T19:07:57.170Z,13.60
2024-05-09T19:10:28.820Z,13.90
2024-05-09T19:12:59.896Z,10.97
2024-05-09T19:15:26.414Z,10.32
2024-05-09T19:17:53.160Z,10.45
2024-05-09T19:20:25.512Z,12.75
2024-05-09T19:22:58.379Z,11.45
2024-05-09T19:25:24.953Z,10.93
2024-05-09T19:27:51.555Z,11.20
2024-05-09T19:30:25.650Z,14.30
2024-05-09T19:33:01.180Z,14.23
2024-05-09T19:35:27.813Z,13.30
2024-05-09T19:37:54.288Z,14.43
2024-05-09T19:40:28.659Z,14.73
2024-05-09T19:42:58.599Z,14.18
2024-05-09T19:45:25.304Z,15.38
2024-05-09T19:47:51.992Z,14.98
2024-05-09T19:50:26.669Z,13.40
2024-05-09T19:52:59.456Z,14.55
2024-05-09T19:55:25.983Z,15.45
2024-05-09T19:57:52.607Z,14.25
2024-05-09T20:00:26.029Z,16.50
2024-05-09T20:02:55.949Z,14.80
2024-05-09T20:05:23.101Z,18.42
2024-05-09T20:07:49.869Z,19.38
2024-05-09T20:10:23.385Z,18.55
2024-05-09T20:12:53.198Z,18.42
2024-05-09T20:15:19.778Z,17.13
2024-05-09T20:17:46.496Z,21.85
2024-05-09T20:20:23.534Z,19.10
2024-05-09T20:22:56.277Z,20.02
2024-05-09T20:25:22.782Z,21.52
2024-05-09T20:27:49.321Z,24.83
2024-05-09T20:30:24.736Z,21.33
2024-05-09T20:32:55.432Z,22.00
2024-05-09T20:35:21.947Z,20.48
2024-05-09T20:37:48.411Z,20.75
2024-05-09T20:40:21.256Z,25.40
2024-05-09T20:42:52.214Z,25.08
2024-05-09T20:45:18.735Z,26.55
2024-05-09T20:47:45.379Z,25.98
2024-05-09T20:50:23.003Z,25.70
2024-05-09T20:52:55.174Z,25.27
2024-05-09T20:55:21.774Z,24.38
2024-05-09T20:57:48.341Z,26.42
2024-05-09T21:00:18.887Z,27.02
2024-05-09T21:02:49.238Z,25.63
2024-05-09T21:05:15.897Z,26.13
2024-05-09T21:07:42.498Z,25.52
2024-05-09T21:10:15.568Z,21.40
2024-05-09T21:12:46.125Z,22.23
2024-05-09T21:15:12.639Z,23.45
2024-05-09T21:17:39.320Z,23.47
2024-05-09T21:20:09.373Z,25.20
2024-05-09T21:22:40.710Z,27.02
2024-05-09T21:25:07.223Z,30.02
2024-05-09T21:27:33.777Z,26.83
2024-05-09T21:30:00.312Z,28.57
2024-05-09T21:32:26.893Z,26.83
2024-05-09T21:34:53.487Z,26.88
2024-05-09T21:37:20.120Z,26.85
2024-05-09T21:39:46.638Z,28.30
2024-05-09T21:42:13.147Z,25.23
2024-05-09T21:44:39.632Z,24.63
2024-05-09T21:47:06.141Z,25.38
2024-05-09T21:49:32.647Z,30.17
2024-05-09T21:51:59.191Z,27.75
2024-05-09T21:54:25.699Z,26.30
2024-05-09T21:56:52.174Z,23.45
2024-05-09T21:59:18.671Z,23.02
2024-05-09T22:01:46.221Z,21.95
2024-05-09T22:04:12.920Z,22.48
2024-05-09T22:06:39.575Z,23.00
2024-05-09T22:09:06.062Z,26.63
2024-05-09T22:11:32.631Z,28.58
2024-05-09T22:13:59.190Z,27.35
2024-05-09T22:16:25.798Z,26.23
2024-05-09T22:18:52.439Z,26.83
2024-05-09T22:21:18.952Z,25.80
2024-05-09T22:23:45.430Z,24.27
2024-05-09T22:26:11.942Z,26.65
2024-05-09T22:28:38.411Z,25.55
2024-05-09T22:31:05.097Z,26.07
2024-05-09T22:33:31.725Z,24.75
2024-05-09T22:35:58.266Z,25.38
2024-05-09T22:38:24.739Z,25.88
2024-05-09T22:40:51.283Z,27.80
2024-05-09T22:43:22.780Z,25.93
2024-05-09T22:45:51.092Z,26.50
2024-05-09T22:48:18.146Z,26.00
2024-05-09T22:50:44.730Z,25.55
2024-05-09T22:53:12.320Z,23.85
2024-05-09T22:55:38.824Z,26.53
2024-05-09T22:58:05.430Z,25.52
2024-05-09T23:00:33.193Z,27.63
2024-05-09T23:03:00.974Z,26.98
2024-05-09T23:05:28.227Z,26.38
2024-05-09T23:07:55.066Z,25.60
2024-05-09T23:10:28.326Z,23.17
2024-05-09T23:13:01.614Z,21.98
2024-05-09T23:15:28.365Z,19.40
2024-05-09T23:17:55.091Z,22.35
2024-05-09T23:20:29.600Z,18.90
2024-05-09T23:23:03.121Z,20.42
2024-05-09T23:25:29.603Z,22.15
2024-05-09T23:27:56.107Z,22.38
2024-05-09T23:30:33.029Z,19.80
2024-05-09T23:33:04.582Z,20.07
2024-05-09T23:35:31.186Z,21.02
2024-05-09T23:37:57.712Z,22.67
2024-05-09T23:40:34.637Z,21.70
2024-05-09T23:43:05.305Z,18.10
2024-05-09T23:45:31.889Z,23.00
2024-05-09T23:47:58.554Z,22.73
2024-05-09T23:50:33.271Z,22.33
2024-05-09T23:53:03.070Z,19.40
2024-05-09T23:55:29.609Z,22.23
2024-05-09T23:57:56.157Z,21.83
